ESNK/KRF METAR and TAF weather

Enter ICAO airport designator
Station Type Date Time Source
ESNK METAR 2018/10/16 21:20 UTC NOAA

ESNK 162120Z AUTO 00000KT 0300 R17/0900N R35/1000D FG VV002 01/01 Q1018


Station Type Date Time Source
ESNK Decoded METAR 2018/10/16 21:20 UTC NOAA

Kramfors Flygplats, Sweden (ESNK) 63-03N 017-46E 19M
Oct 16, 2018 - 05:20 PM EDT / 2018.10.16 2120 UTC
Wind: Calm:0
Visibility: less than 1 mile:0
Sky conditions: obscured
Weather: fog
Temperature: 33 F (1 C)
Dew Point: 33 F (1 C)
Relative Humidity: 100%
Pressure (altimeter): 30.06 in. Hg (1018 hPa)
ob: ESNK 162120Z AUTO 00000KT 0300 R17/0900N R35/1000D FG VV002 01/01 Q1018
cycle: 21

Station Type Date Time Source
ESNK TAF 2017/12/15 06:00 UTC NOAA

TAF
AMD ESNK 150654Z 1506/1521 35005KT 6000 -SN BKN016
TEMPO 1506/1521 2000 SN SG VV009


Example: see airport list